createdAt,value
2018-06-16T00:01:30.176Z,11.90
2018-06-16T00:03:59.525Z,10.33
2018-06-16T00:06:28.971Z,11.53
2018-06-16T00:08:58.355Z,11.37
2018-06-16T00:11:38.727Z,13.50
2018-06-16T00:14:08.336Z,16.10
2018-06-16T00:16:37.776Z,10.43
2018-06-16T00:19:07.005Z,11.07
2018-06-16T00:21:40.753Z,11.23
2018-06-16T00:24:10.093Z,12.10
2018-06-16T00:26:39.514Z,11.07
2018-06-16T00:29:08.904Z,12.50
2018-06-16T00:31:46.671Z,12.17
2018-06-16T00:34:16.129Z,11.73
2018-06-16T00:36:45.315Z,11.77
2018-06-16T00:39:14.760Z,12.17
2018-06-16T00:41:44.889Z,13.33
2018-06-16T00:44:14.345Z,11.17
2018-06-16T00:46:43.765Z,10.90
2018-06-16T00:49:13.046Z,13.20
2018-06-16T00:51:50.114Z,13.60
2018-06-16T00:54:19.617Z,13.27
2018-06-16T00:57:04.602Z,11.90
2018-06-16T00:59:33.913Z,11.70
2018-06-16T01:02:04.479Z,10.77
2018-06-16T01:04:33.934Z,10.23
2018-06-16T01:07:03.300Z,10.93
2018-06-16T01:09:32.680Z,11.30
2018-06-16T01:12:03.129Z,10.37
2018-06-16T01:14:32.453Z,13.30
2018-06-16T01:17:01.809Z,15.30
2018-06-16T01:19:31.213Z,11.03
2018-06-16T01:22:04.166Z,11.73
2018-06-16T01:24:33.599Z,11.43
2018-06-16T01:27:02.958Z,13.13
2018-06-16T01:29:32.422Z,11.67
2018-06-16T01:32:08.914Z,11.67
2018-06-16T01:34:38.278Z,13.60
2018-06-16T01:37:07.690Z,10.83
2018-06-16T01:39:37.110Z,10.53
2018-06-16T01:42:14.056Z,10.53
2018-06-16T01:44:43.465Z,10.07
2018-06-16T01:47:12.929Z,12.50
2018-06-16T01:49:42.304Z,11.50
2018-06-16T01:52:13.763Z,11.03
2018-06-16T01:54:43.213Z,13.47
2018-06-16T01:57:12.585Z,11.67
2018-06-16T01:59:42.006Z,11.60
2018-06-16T02:02:20.886Z,11.87
2018-06-16T02:04:50.312Z,10.60
2018-06-16T02:07:19.780Z,11.03
2018-06-16T02:09:49.223Z,11.00
2018-06-16T02:12:32.776Z,11.87
2018-06-16T02:15:02.181Z,12.13
2018-06-16T02:17:31.567Z,16.03
2018-06-16T02:20:00.915Z,11.73
2018-06-16T02:22:46.969Z,11.63
2018-06-16T02:25:16.467Z,12.30
2018-06-16T02:27:45.778Z,12.43
2018-06-16T02:30:15.245Z,13.53
2018-06-16T02:32:58.232Z,12.10
2018-06-16T02:35:27.392Z,14.07
2018-06-16T02:37:56.491Z,10.93
2018-06-16T02:40:25.670Z,10.67
2018-06-16T02:42:56.812Z,13.00
2018-06-16T02:45:26.150Z,11.47
2018-06-16T02:47:55.507Z,11.83
2018-06-16T02:50:24.944Z,12.13
2018-06-16T02:53:02.839Z,13.00
2018-06-16T02:55:32.245Z,11.40
2018-06-16T02:58:01.689Z,12.40
2018-06-16T03:00:31.106Z,10.77
2018-06-16T03:03:00.547Z,12.53
2018-06-16T03:05:29.654Z,13.10
2018-06-16T03:07:59.071Z,12.37
2018-06-16T03:10:28.464Z,12.07
2018-06-16T03:13:01.477Z,12.47
2018-06-16T03:15:30.871Z,11.50
2018-06-16T03:18:00.233Z,12.57
2018-06-16T03:20:29.613Z,15.20
2018-06-16T03:23:33.327Z,11.53
2018-06-16T03:26:02.675Z,12.33
2018-06-16T03:28:32.067Z,14.33
2018-06-16T03:31:01.434Z,13.07
2018-06-16T03:33:30.685Z,12.93
2018-06-16T03:36:00.082Z,12.50
2018-06-16T03:38:29.487Z,11.87
2018-06-16T03:40:58.870Z,13.97
2018-06-16T03:43:45.568Z,12.90
2018-06-16T03:46:14.995Z,12.67
2018-06-16T03:48:44.360Z,11.20
2018-06-16T03:51:13.765Z,12.90
2018-06-16T03:53:43.165Z,11.97
2018-06-16T03:56:12.548Z,13.13
2018-06-16T03:58:41.885Z,11.47
2018-06-16T04:01:11.287Z,10.90
2018-06-16T04:03:52.207Z,12.13
2018-06-16T04:06:21.702Z,13.63
2018-06-16T04:08:51.041Z,14.37
2018-06-16T04:11:20.411Z,13.87
2018-06-16T04:13:49.821Z,14.43
2018-06-16T04:16:19.237Z,13.27
2018-06-16T04:18:48.650Z,15.00
2018-06-16T04:21:18.047Z,13.77
2018-06-16T04:23:47.471Z,13.13
2018-06-16T04:26:16.856Z,13.50
2018-06-16T04:28:46.192Z,15.13
2018-06-16T04:31:15.609Z,14.43
2018-06-16T04:33:45.043Z,13.53
2018-06-16T04:36:14.427Z,14.50
2018-06-16T04:38:44.355Z,13.53
2018-06-16T04:41:13.710Z,13.87
2018-06-16T04:43:43.030Z,13.47
2018-06-16T04:46:12.530Z,13.70
2018-06-16T04:48:41.890Z,12.90
2018-06-16T04:51:11.261Z,13.33
2018-06-16T04:53:42.718Z,14.67
2018-06-16T04:56:12.187Z,13.30
2018-06-16T04:58:41.532Z,13.53
2018-06-16T05:01:10.898Z,13.40
2018-06-16T05:03:42.284Z,13.30
2018-06-16T05:06:11.725Z,12.87
2018-06-16T05:08:41.119Z,12.60
2018-06-16T05:13:52.408Z,13.97
2018-06-16T05:16:22.546Z,14.93
2018-06-16T05:18:51.932Z,13.90
2018-06-16T05:21:21.366Z,12.17
2018-06-16T05:23:50.787Z,12.33
2018-06-16T05:26:20.146Z,12.40
2018-06-16T05:28:49.519Z,13.57
2018-06-16T05:31:19.282Z,14.30
2018-06-16T05:33:48.849Z,13.63
2018-06-16T05:36:18.493Z,12.90
2018-06-16T05:38:47.931Z,13.30
2018-06-16T05:41:17.359Z,14.93
2018-06-16T05:43:46.800Z,14.50
2018-06-16T05:46:16.131Z,15.80
2018-06-16T05:48:45.498Z,15.03
2018-06-16T05:51:14.883Z,14.93
2018-06-16T05:53:44.201Z,14.03
2018-06-16T05:56:13.562Z,14.47
2018-06-16T05:58:43.059Z,14.57
2018-06-16T06:01:12.426Z,14.87
2018-06-16T06:03:42.863Z,13.60
2018-06-16T06:06:12.321Z,13.70
2018-06-16T06:08:41.732Z,13.57
2018-06-16T06:11:11.070Z,13.93
2018-06-16T06:13:40.525Z,13.50
2018-06-16T06:16:09.913Z,14.20
2018-06-16T06:18:39.461Z,14.97
2018-06-16T06:21:08.941Z,14.53
2018-06-16T06:23:39.417Z,14.27
2018-06-16T06:26:08.852Z,13.23
2018-06-16T06:28:38.257Z,14.60
2018-06-16T06:31:07.644Z,13.10
2018-06-16T06:33:45.158Z,14.87
2018-06-16T06:36:14.285Z,14.33
2018-06-16T06:38:43.653Z,14.27
2018-06-16T06:41:13.017Z,13.10
2018-06-16T06:43:42.372Z,13.43
2018-06-16T06:46:11.803Z,12.93
2018-06-16T06:48:41.151Z,13.20
2018-06-16T06:51:10.525Z,11.70
2018-06-16T06:53:40.935Z,12.57
2018-06-16T06:56:10.374Z,12.17
2018-06-16T06:58:39.744Z,12.03
2018-06-16T07:01:09.078Z,11.43
2018-06-16T07:03:38.566Z,11.67
2018-06-16T07:06:07.980Z,12.43
2018-06-16T07:08:37.333Z,11.37
2018-06-16T07:11:06.763Z,11.97
2018-06-16T07:13:37.193Z,13.07
2018-06-16T07:16:06.663Z,12.53
2018-06-16T07:18:35.983Z,12.03
2018-06-16T07:21:05.456Z,11.53
2018-06-16T07:23:47.835Z,12.60
2018-06-16T07:26:17.242Z,11.53
2018-06-16T07:28:46.727Z,10.87
2018-06-16T07:31:16.088Z,11.03
2018-06-16T07:33:45.486Z,11.30
2018-06-16T07:36:14.855Z,10.63
2018-06-16T07:38:44.252Z,10.07
2018-06-16T07:41:13.309Z,9.00
2018-06-16T07:43:42.672Z,10.00
2018-06-16T07:46:12.057Z,8.37
2018-06-16T07:48:41.404Z,9.27
2018-06-16T07:51:10.770Z,10.80
2018-06-16T07:53:47.622Z,8.17
2018-06-16T07:56:17.000Z,10.53
2018-06-16T07:58:46.386Z,11.63
2018-06-16T08:01:15.729Z,10.73
2018-06-16T08:03:45.151Z,8.20
2018-06-16T08:06:14.384Z,8.33
2018-06-16T08:08:43.501Z,8.10
2018-06-16T08:11:12.765Z,7.43
2018-06-16T08:13:42.181Z,7.53
2018-06-16T08:16:11.559Z,6.87
2018-06-16T08:18:40.931Z,11.00
2018-06-16T08:21:09.926Z,6.73
2018-06-16T08:23:44.546Z,7.50
2018-06-16T08:26:13.957Z,7.87
2018-06-16T08:28:43.313Z,7.08
2018-06-16T08:31:12.660Z,6.13
2018-06-16T08:33:41.949Z,7.53
2018-06-16T08:36:11.349Z,6.50
2018-06-16T08:38:40.746Z,6.53
2018-06-16T08:41:10.112Z,6.35
2018-06-16T08:43:39.583Z,6.45
2018-06-16T08:46:08.987Z,5.72
2018-06-16T08:48:38.182Z,6.50
2018-06-16T08:51:07.608Z,5.62
2018-06-16T08:53:46.994Z,5.53
2018-06-16T08:56:16.314Z,6.67
2018-06-16T08:58:45.761Z,7.37
2018-06-16T09:01:15.117Z,5.75
2018-06-16T09:03:44.530Z,7.17
2018-06-16T09:06:13.906Z,8.20
2018-06-16T09:08:43.317Z,6.20
2018-06-16T09:11:12.723Z,5.20
2018-06-16T09:13:42.110Z,4.87
2018-06-16T09:16:11.502Z,9.03
2018-06-16T09:18:40.891Z,4.67
2018-06-16T09:21:10.383Z,5.00
2018-06-16T09:23:44.329Z,6.37
2018-06-16T09:26:13.733Z,4.70
2018-06-16T09:28:43.111Z,4.00
2018-06-16T09:31:12.540Z,3.60
2018-06-16T09:33:41.930Z,3.83
2018-06-16T09:36:11.319Z,4.10
2018-06-16T09:38:40.706Z,3.83
2018-06-16T09:41:13.729Z,4.10
2018-06-16T09:43:43.049Z,5.47
2018-06-16T09:46:12.434Z,7.92
2018-06-16T09:48:41.891Z,5.08
2018-06-16T09:51:11.410Z,3.65
2018-06-16T09:53:44.169Z,4.55
2018-06-16T09:56:13.490Z,4.20
2018-06-16T09:58:42.929Z,3.90
2018-06-16T10:01:12.271Z,4.47
2018-06-16T10:03:49.340Z,5.50
2018-06-16T10:06:18.739Z,4.28
2018-06-16T10:08:48.217Z,5.00
2018-06-16T10:11:17.601Z,4.72
2018-06-16T10:13:47.198Z,3.92
2018-06-16T10:16:17.073Z,4.62
2018-06-16T10:18:46.405Z,4.60
2018-06-16T10:21:15.856Z,4.03
2018-06-16T10:23:45.190Z,4.62
2018-06-16T10:26:14.571Z,5.28
2018-06-16T10:28:43.952Z,19.92
2018-06-16T10:31:13.365Z,4.30
2018-06-16T10:33:42.759Z,4.33
2018-06-16T10:36:12.043Z,4.12
2018-06-16T10:38:41.436Z,4.78
2018-06-16T10:41:10.883Z,4.03
2018-06-16T10:43:48.272Z,3.70
2018-06-16T10:46:17.737Z,3.83
2018-06-16T10:48:47.159Z,9.03
2018-06-16T10:51:16.542Z,4.17
2018-06-16T10:53:46.042Z,17.60
2018-06-16T10:56:15.432Z,4.40
2018-06-16T10:58:44.805Z,4.08
2018-06-16T11:01:14.241Z,4.37
2018-06-16T11:03:43.597Z,49.75
2018-06-16T11:06:13.099Z,13.45
2018-06-16T11:08:42.487Z,6.92
2018-06-16T11:11:11.905Z,4.62
2018-06-16T11:13:48.913Z,4.00
2018-06-16T11:16:18.255Z,5.47
2018-06-16T11:18:47.744Z,4.92
2018-06-16T11:21:20.867Z,4.25
2018-06-16T11:23:50.203Z,4.97
2018-06-16T11:26:19.642Z,14.45
2018-06-16T11:28:48.918Z,4.12
2018-06-16T11:31:18.254Z,3.60
2018-06-16T11:33:47.673Z,3.75
2018-06-16T11:36:16.960Z,4.00
2018-06-16T11:38:53.193Z,3.77
2018-06-16T11:41:22.589Z,3.67
2018-06-16T11:43:52.005Z,4.22
2018-06-16T11:46:21.473Z,4.10
2018-06-16T11:48:50.898Z,3.40
2018-06-16T11:51:20.319Z,4.95
2018-06-16T11:53:49.670Z,4.83
2018-06-16T11:56:19.081Z,5.40
2018-06-16T11:58:48.449Z,3.65
2018-06-16T12:01:17.843Z,7.33
2018-06-16T12:03:47.217Z,6.08
2018-06-16T12:06:16.623Z,4.08
2018-06-16T12:08:46.342Z,4.10
2018-06-16T12:11:15.730Z,3.90
2018-06-16T12:13:45.193Z,3.45
2018-06-16T12:16:14.605Z,3.70
2018-06-16T12:18:43.914Z,4.05
2018-06-16T12:21:13.273Z,4.10
2018-06-16T12:23:42.664Z,9.80
2018-06-16T12:26:12.083Z,8.33
2018-06-16T12:28:41.421Z,7.25
2018-06-16T12:31:10.770Z,6.55
2018-06-16T12:33:42.212Z,4.95
2018-06-16T12:36:11.569Z,4.00
2018-06-16T12:38:40.937Z,4.03
2018-06-16T12:41:10.276Z,3.67
2018-06-16T12:43:47.371Z,3.75
2018-06-16T12:46:16.742Z,4.58
2018-06-16T12:48:46.061Z,3.72
2018-06-16T12:51:15.515Z,3.75
2018-06-16T12:53:44.924Z,4.42
2018-06-16T12:56:14.311Z,8.00
2018-06-16T12:58:43.613Z,3.77
2018-06-16T13:01:13.034Z,5.03
2018-06-16T13:03:42.401Z,4.08
2018-06-16T13:06:11.796Z,5.72
2018-06-16T13:08:41.208Z,4.87
2018-06-16T13:11:10.677Z,4.75
2018-06-16T13:13:40.128Z,3.75
2018-06-16T13:16:09.553Z,4.22
2018-06-16T13:18:38.997Z,3.92
2018-06-16T13:21:08.429Z,4.03
2018-06-16T13:23:37.953Z,4.55
2018-06-16T13:26:07.329Z,3.90
2018-06-16T13:28:36.685Z,5.55
2018-06-16T13:31:06.066Z,6.67
2018-06-16T13:33:40.989Z,4.12
2018-06-16T13:36:10.348Z,3.77
2018-06-16T13:38:39.901Z,4.15
2018-06-16T13:41:09.036Z,5.92
2018-06-16T13:43:39.410Z,7.25
2018-06-16T13:46:09.622Z,5.80
2018-06-16T13:48:38.840Z,4.30
2018-06-16T13:51:07.914Z,4.08
2018-06-16T13:53:45.610Z,5.50
2018-06-16T13:56:15.067Z,3.85
2018-06-16T13:58:44.482Z,4.25
2018-06-16T14:01:13.905Z,4.22
2018-06-16T14:03:43.264Z,4.25
2018-06-16T14:06:12.709Z,4.00
2018-06-16T14:08:42.061Z,4.00
2018-06-16T14:11:11.466Z,4.20
2018-06-16T14:13:40.963Z,6.85
2018-06-16T14:16:10.379Z,3.58
2018-06-16T14:18:39.818Z,3.40
2018-06-16T14:21:09.266Z,3.77
2018-06-16T14:23:38.809Z,4.10
2018-06-16T14:26:08.242Z,3.72
2018-06-16T14:28:37.648Z,4.05
2018-06-16T14:31:07.037Z,5.92
2018-06-16T14:33:57.567Z,2.90
2018-06-16T14:36:26.914Z,3.70
2018-06-16T14:38:56.314Z,4.50
2018-06-16T14:41:25.882Z,3.77
2018-06-16T14:43:55.325Z,4.28
2018-06-16T14:46:24.649Z,4.15
2018-06-16T14:48:53.987Z,3.65
2018-06-16T14:51:23.383Z,5.05
2018-06-16T14:53:52.795Z,4.30
2018-06-16T14:56:22.266Z,4.17
2018-06-16T14:58:51.606Z,4.50
2018-06-16T15:01:20.950Z,4.35
2018-06-16T15:03:50.286Z,4.45
2018-06-16T15:06:20.894Z,4.58
2018-06-16T15:08:50.263Z,4.78
2018-06-16T15:11:19.645Z,4.78
2018-06-16T15:13:48.760Z,5.22
2018-06-16T15:16:17.892Z,4.33
2018-06-16T15:18:47.083Z,4.97
2018-06-16T15:21:16.549Z,4.60
2018-06-16T15:23:45.913Z,6.95
2018-06-16T15:26:15.295Z,6.70
2018-06-16T15:28:44.675Z,5.15
2018-06-16T15:31:14.124Z,4.70
2018-06-16T15:33:43.505Z,4.80
2018-06-16T15:36:12.929Z,4.60
2018-06-16T15:38:42.239Z,5.17
2018-06-16T15:41:11.657Z,5.17
2018-06-16T15:43:42.122Z,5.70
2018-06-16T15:46:11.513Z,5.92
2018-06-16T15:48:41.653Z,5.95
2018-06-16T15:51:11.066Z,5.12
2018-06-16T15:53:44.702Z,5.08
2018-06-16T15:56:14.078Z,5.80
2018-06-16T15:58:43.421Z,5.15
2018-06-16T16:01:12.836Z,4.78
2018-06-16T16:03:42.148Z,5.35
2018-06-16T16:06:11.550Z,5.00
2018-06-16T16:08:40.909Z,4.45
2018-06-16T16:11:10.286Z,5.00
2018-06-16T16:13:53.782Z,4.87
2018-06-16T16:16:23.181Z,11.33
2018-06-16T16:18:52.571Z,5.17
2018-06-16T16:21:21.938Z,5.37
2018-06-16T16:23:51.359Z,5.15
2018-06-16T16:26:20.761Z,8.05
2018-06-16T16:28:50.149Z,4.58
2018-06-16T16:31:19.444Z,4.90
2018-06-16T16:33:48.924Z,5.12
2018-06-16T16:36:18.305Z,4.67
2018-06-16T16:38:47.630Z,10.28
2018-06-16T16:41:16.965Z,22.30
2018-06-16T16:43:46.333Z,18.67
2018-06-16T16:46:15.738Z,23.83
2018-06-16T16:48:45.069Z,15.35
2018-06-16T16:51:14.412Z,33.55
2018-06-16T16:53:43.769Z,18.65
2018-06-16T16:56:13.126Z,15.05
2018-06-16T16:58:42.411Z,5.53
2018-06-16T17:01:11.984Z,17.82
2018-06-16T17:03:48.783Z,21.33
2018-06-16T17:06:18.173Z,23.62
2018-06-16T17:08:47.549Z,21.87
2018-06-16T17:11:16.894Z,5.95
2018-06-16T17:13:46.269Z,5.12
2018-06-16T17:16:15.325Z,5.47
2018-06-16T17:18:44.668Z,5.45
2018-06-16T17:21:13.972Z,5.03
2018-06-16T17:23:43.349Z,6.42
2018-06-16T17:26:12.373Z,5.58
2018-06-16T17:28:41.727Z,6.33
2018-06-16T17:31:11.045Z,5.87
2018-06-16T17:33:42.245Z,7.05
2018-06-16T17:36:11.564Z,5.80
2018-06-16T17:38:40.909Z,7.40
2018-06-16T17:41:10.332Z,6.12
2018-06-16T17:43:39.801Z,5.08
2018-06-16T17:46:09.217Z,6.97
2018-06-16T17:48:38.590Z,5.95
2018-06-16T17:51:07.989Z,5.97
2018-06-16T17:53:39.408Z,5.60
2018-06-16T17:56:08.682Z,6.37
2018-06-16T17:58:37.974Z,6.45
2018-06-16T18:01:07.377Z,6.20
2018-06-16T18:03:37.829Z,6.12
2018-06-16T18:06:07.266Z,6.00
2018-06-16T18:08:36.699Z,6.60
2018-06-16T18:11:05.901Z,6.33
2018-06-16T18:13:35.316Z,6.17
2018-06-16T18:16:04.773Z,6.92
2018-06-16T18:18:37.252Z,7.72
2018-06-16T18:21:06.673Z,5.95
2018-06-16T18:23:44.055Z,6.67
2018-06-16T18:26:13.365Z,8.00
2018-06-16T18:28:42.741Z,6.75
2018-06-16T18:31:11.708Z,6.53
2018-06-16T18:33:41.122Z,6.65
2018-06-16T18:36:10.493Z,6.72
2018-06-16T18:38:39.831Z,5.87
2018-06-16T18:41:09.149Z,6.27
2018-06-16T18:43:38.618Z,6.83
2018-06-16T18:46:07.949Z,7.37
2018-06-16T18:48:37.294Z,6.53
2018-06-16T18:51:06.662Z,7.17
2018-06-16T18:53:35.812Z,7.13
2018-06-16T18:56:05.245Z,7.60
2018-06-16T18:58:34.589Z,6.63
2018-06-16T19:01:03.982Z,6.70
2018-06-16T19:03:35.260Z,7.33
2018-06-16T19:06:04.581Z,7.97
2018-06-16T19:08:33.925Z,7.07
2018-06-16T19:11:03.246Z,7.73
2018-06-16T19:13:33.729Z,7.23
2018-06-16T19:16:03.198Z,7.60
2018-06-16T19:18:32.565Z,7.97
2018-06-16T19:21:01.955Z,8.17
2018-06-16T19:23:37.018Z,8.23
2018-06-16T19:26:06.835Z,7.30
2018-06-16T19:28:36.289Z,7.90
2018-06-16T19:31:05.608Z,7.47
2018-06-16T19:34:01.553Z,7.73
2018-06-16T19:36:30.909Z,8.87
2018-06-16T19:39:00.257Z,8.87
2018-06-16T19:41:29.613Z,9.40
2018-06-16T19:43:58.933Z,8.80
2018-06-16T19:46:28.300Z,8.70
2018-06-16T19:48:57.657Z,8.40
2018-06-16T19:51:27.082Z,8.80
2018-06-16T19:53:56.028Z,8.50
2018-06-16T19:56:25.217Z,9.13
2018-06-16T19:58:54.574Z,8.93
2018-06-16T20:01:23.926Z,8.67
2018-06-16T20:04:05.518Z,8.73
2018-06-16T20:06:34.607Z,8.77
2018-06-16T20:09:05.043Z,9.07
2018-06-16T20:11:35.574Z,8.77
2018-06-16T20:14:04.908Z,8.80
2018-06-16T20:16:34.250Z,9.20
2018-06-16T20:19:03.591Z,9.90
2018-06-16T20:21:35.106Z,8.93
2018-06-16T20:24:04.457Z,9.20
2018-06-16T20:26:33.813Z,9.93
2018-06-16T20:29:03.137Z,10.67
2018-06-16T20:31:35.469Z,10.03
2018-06-16T20:34:04.805Z,10.33
2018-06-16T20:36:33.789Z,10.27
2018-06-16T20:39:02.868Z,11.77
2018-06-16T20:41:32.362Z,9.80
2018-06-16T20:44:01.698Z,9.73
2018-06-16T20:46:31.061Z,10.37
2018-06-16T20:49:00.455Z,11.57
2018-06-16T20:51:29.869Z,9.47
2018-06-16T20:53:59.181Z,10.93
2018-06-16T20:56:28.470Z,10.57
2018-06-16T20:58:57.832Z,10.90
2018-06-16T21:01:27.122Z,10.90
2018-06-16T21:03:56.891Z,9.83
2018-06-16T21:06:25.996Z,10.63
2018-06-16T21:08:55.076Z,10.93
2018-06-16T21:11:24.189Z,11.80
2018-06-16T21:13:53.372Z,12.03
2018-06-16T21:16:22.433Z,12.47
2018-06-16T21:18:51.697Z,12.50
2018-06-16T21:21:21.143Z,12.87
2018-06-16T21:23:50.534Z,12.87
2018-06-16T21:26:19.869Z,12.20
2018-06-16T21:28:49.305Z,13.03
2018-06-16T21:31:18.797Z,12.80
2018-06-16T21:33:48.132Z,12.13
2018-06-16T21:36:17.460Z,12.80
2018-06-16T21:38:46.803Z,12.90
2018-06-16T21:41:16.146Z,12.70
2018-06-16T21:43:45.477Z,13.00
2018-06-16T21:46:14.813Z,12.47
2018-06-16T21:48:44.158Z,13.70
2018-06-16T21:51:13.578Z,13.10
2018-06-16T21:53:42.988Z,14.70
2018-06-16T21:56:12.389Z,14.53
2018-06-16T21:58:41.693Z,14.50
2018-06-16T22:01:11.029Z,13.87
2018-06-16T22:03:47.477Z,12.17
2018-06-16T22:06:16.797Z,12.27
2018-06-16T22:08:46.185Z,12.20
2018-06-16T22:11:15.266Z,12.93
2018-06-16T22:13:44.614Z,13.87
2018-06-16T22:16:14.027Z,13.53
2018-06-16T22:18:43.426Z,14.13
2018-06-16T22:21:12.811Z,14.03
2018-06-16T22:23:42.137Z,13.87
2018-06-16T22:26:11.472Z,14.17
2018-06-16T22:28:40.753Z,13.23
2018-06-16T22:31:10.073Z,13.67
2018-06-16T22:33:39.508Z,14.57
2018-06-16T22:36:08.862Z,12.63
2018-06-16T22:38:38.298Z,13.73
2018-06-16T22:41:07.686Z,14.10
2018-06-16T22:43:50.913Z,13.10
2018-06-16T22:46:20.313Z,12.77
2018-06-16T22:48:49.612Z,12.87
2018-06-16T22:51:18.978Z,12.57
2018-06-16T22:53:48.401Z,13.07
2018-06-16T22:56:17.709Z,14.00
2018-06-16T22:58:47.102Z,14.90
2018-06-16T23:01:16.449Z,15.00
2018-06-16T23:03:45.881Z,15.00
2018-06-16T23:06:15.173Z,14.50
2018-06-16T23:08:44.542Z,13.03
2018-06-16T23:11:13.910Z,14.13
2018-06-16T23:13:43.241Z,16.03
2018-06-16T23:16:12.630Z,15.43
2018-06-16T23:18:41.975Z,16.70
2018-06-16T23:21:11.447Z,15.83
2018-06-16T23:24:14.665Z,16.53
2018-06-16T23:26:44.068Z,15.97
2018-06-16T23:29:13.411Z,16.37
2018-06-16T23:31:42.775Z,17.43
2018-06-16T23:34:12.121Z,19.10
2018-06-16T23:36:41.409Z,18.10
2018-06-16T23:39:12.481Z,17.90
2018-06-16T23:41:54.686Z,16.77
2018-06-16T23:44:24.131Z,15.47
2018-06-16T23:46:53.477Z,16.33
2018-06-16T23:49:22.798Z,14.90
2018-06-16T23:51:57.813Z,14.80
2018-06-16T23:54:27.029Z,15.43
2018-06-16T23:56:56.424Z,15.10
2018-06-16T23:59:25.850Z,14.33
